createdAt,value
2022-10-12T01:47:52.440Z,12.96
2022-10-12T02:19:29.543Z,13.20
2022-10-12T02:41:54.262Z,12.94
2022-10-12T02:49:24.328Z,12.85
2022-10-12T03:15:09.459Z,12.20
2022-10-12T03:17:39.756Z,12.19
2022-10-12T03:20:12.768Z,12.17
2022-10-12T03:22:43.762Z,12.14
2022-10-12T03:25:13.482Z,12.11
2022-10-12T03:27:42.922Z,12.10
2022-10-12T03:30:20.982Z,12.08
2022-10-12T03:32:53.748Z,12.06
2022-10-12T03:35:24.580Z,12.00
2022-10-12T03:37:55.887Z,11.91
2022-10-12T03:40:24.826Z,11.91
2022-10-12T03:42:55.287Z,11.90
2022-10-12T03:45:26.017Z,11.89
2022-10-12T03:48:05.100Z,11.82
2022-10-12T03:50:35.608Z,11.72
2022-10-12T03:53:07.190Z,11.71
2022-10-12T03:55:36.449Z,11.64
2022-10-12T03:58:08.232Z,11.59
2022-10-12T04:00:58.797Z,11.57
2022-10-12T04:03:56.941Z,11.52
2022-10-12T04:06:58.335Z,11.48
2022-10-12T04:10:04.707Z,11.44
2022-10-12T04:13:10.425Z,11.42
2022-10-12T04:16:18.164Z,11.44
2022-10-12T04:19:21.024Z,11.44
2022-10-12T04:22:25.091Z,11.47
2022-10-12T04:45:39.625Z,11.61
2022-10-12T04:49:00.770Z,11.65
2022-10-12T04:56:06.756Z,11.66
2022-10-12T04:59:55.706Z,11.63
2022-10-12T05:07:31.140Z,11.66
2022-10-12T05:09:59.033Z,11.67
2022-10-12T05:12:27.115Z,11.68
2022-10-12T05:14:54.931Z,11.69
2022-10-12T05:17:22.779Z,11.69
2022-10-12T05:19:50.672Z,11.69
2022-10-12T05:22:18.560Z,11.68
2022-10-12T05:24:50.049Z,11.67
2022-10-12T05:27:21.178Z,11.66
2022-10-12T05:29:49.048Z,11.66
2022-10-12T05:32:17.327Z,11.66
2022-10-12T05:34:45.337Z,11.67
2022-10-12T05:37:13.325Z,11.70
2022-10-12T05:39:41.144Z,11.73
2022-10-12T05:42:09.283Z,11.78
2022-10-12T05:44:38.239Z,11.84
2022-10-12T05:47:06.856Z,11.88
2022-10-12T05:49:34.842Z,11.93
2022-10-12T05:52:03.111Z,12.01
2022-10-12T05:54:30.938Z,12.08
2022-10-12T05:56:58.968Z,12.12
2022-10-12T05:59:26.872Z,12.14
2022-10-12T06:01:54.649Z,12.16
2022-10-12T06:04:22.525Z,12.18
2022-10-12T06:06:50.383Z,12.23
2022-10-12T06:09:18.484Z,12.31
2022-10-12T06:11:46.328Z,12.35
2022-10-12T06:14:14.993Z,12.33
2022-10-12T06:16:42.835Z,12.38
2022-10-12T06:19:12.056Z,12.46
2022-10-12T06:21:39.967Z,12.49
2022-10-12T06:24:07.972Z,12.55
2022-10-12T06:26:35.893Z,12.59
2022-10-12T06:29:03.972Z,12.58
2022-10-12T06:31:32.635Z,12.61
2022-10-12T06:34:00.564Z,12.65
2022-10-12T06:36:28.438Z,12.67
2022-10-12T06:38:56.366Z,12.70
2022-10-12T06:41:24.204Z,12.76
2022-10-12T06:43:51.978Z,12.79
2022-10-12T06:46:19.984Z,12.79
2022-10-12T06:48:47.988Z,12.80
2022-10-12T06:51:15.987Z,12.78
2022-10-12T06:53:44.403Z,12.78
2022-10-12T06:56:12.403Z,12.73
2022-10-12T06:58:41.007Z,12.68
2022-10-12T07:01:10.874Z,12.70
2022-10-12T07:03:39.464Z,12.69
2022-10-12T07:06:13.450Z,12.63
2022-10-12T07:08:42.562Z,12.56
2022-10-12T07:11:12.914Z,12.51
2022-10-12T07:13:40.997Z,12.49
2022-10-12T07:16:08.930Z,12.49
2022-10-12T07:18:37.051Z,12.52
2022-10-12T07:21:04.999Z,12.54
2022-10-12T07:23:34.239Z,12.54
2022-10-12T07:26:02.061Z,12.55
2022-10-12T07:28:30.734Z,12.56
2022-10-12T07:31:04.411Z,12.49
2022-10-12T07:33:36.832Z,12.41
2022-10-12T07:36:14.675Z,12.39
2022-10-12T07:38:48.618Z,12.41
2022-10-12T07:41:17.782Z,12.45
2022-10-12T07:43:45.727Z,12.53
2022-10-12T07:46:13.810Z,12.64
2022-10-12T07:48:45.888Z,12.74
2022-10-12T07:51:15.546Z,12.85
2022-10-12T07:53:43.438Z,12.95
2022-10-12T07:56:15.354Z,13.06
2022-10-12T07:58:49.039Z,13.19
2022-10-12T08:01:18.584Z,13.30
2022-10-12T08:03:47.174Z,13.39
2022-10-12T08:06:18.341Z,13.48
2022-10-12T08:08:47.451Z,13.55
2022-10-12T08:11:16.137Z,13.62
2022-10-12T08:13:45.009Z,13.72
2022-10-12T08:16:16.765Z,13.80
2022-10-12T08:18:44.915Z,13.85
2022-10-12T08:21:14.661Z,13.88
2022-10-12T08:23:44.730Z,13.91
2022-10-12T08:26:13.297Z,13.95
2022-10-12T08:28:41.751Z,13.96
2022-10-12T08:31:16.470Z,14.01
2022-10-12T08:33:44.665Z,14.06
2022-10-12T08:36:13.761Z,14.11
2022-10-12T08:38:43.840Z,14.13
2022-10-12T08:41:33.420Z,14.17
2022-10-12T08:44:39.081Z,14.22
2022-10-12T08:47:17.744Z,14.32
2022-10-12T08:49:50.073Z,14.37
2022-10-12T08:52:36.507Z,14.41
2022-10-12T08:55:24.792Z,14.42
2022-10-12T08:57:52.718Z,14.29
2022-10-12T09:00:20.755Z,14.23
2022-10-12T09:03:03.570Z,14.34
2022-10-12T09:05:41.127Z,14.47
2022-10-12T09:08:41.205Z,14.56
2022-10-12T09:11:36.428Z,14.57
2022-10-12T09:14:27.595Z,14.59
2022-10-12T09:16:57.535Z,14.65
2022-10-12T09:19:35.812Z,14.69
2022-10-12T09:22:06.078Z,14.72
2022-10-12T09:24:39.354Z,14.77
2022-10-12T09:27:16.406Z,14.84
2022-10-12T09:30:02.064Z,14.91
2022-10-12T09:32:53.822Z,15.00
2022-10-12T09:35:21.773Z,15.08
2022-10-12T09:37:53.129Z,15.18
2022-10-12T09:40:28.762Z,15.25
2022-10-12T09:42:59.942Z,15.35
2022-10-12T09:45:30.236Z,15.42
2022-10-12T09:48:24.097Z,15.48
2022-10-12T09:50:59.454Z,15.56
2022-10-12T09:53:30.747Z,15.65
2022-10-12T09:56:05.013Z,15.67
2022-10-12T09:58:41.815Z,15.62
2022-10-12T10:01:19.601Z,15.60
2022-10-12T10:03:52.096Z,15.55
2022-10-12T10:06:25.288Z,15.55
2022-10-12T10:08:53.278Z,15.59
2022-10-12T10:11:25.844Z,15.62
2022-10-12T10:13:55.001Z,15.62
2022-10-12T10:16:26.183Z,15.60
2022-10-12T10:18:54.135Z,15.52
2022-10-12T10:21:33.724Z,15.53
2022-10-12T10:24:08.300Z,15.48
2022-10-12T10:26:57.572Z,15.45
2022-10-12T10:29:40.841Z,15.49
2022-10-12T10:32:24.567Z,15.51
2022-10-12T10:35:14.242Z,15.56
2022-10-12T10:37:48.151Z,15.59
2022-10-12T10:40:25.496Z,15.59
2022-10-12T10:42:57.037Z,15.57
2022-10-12T10:45:33.035Z,15.61
2022-10-12T10:48:11.541Z,15.61
2022-10-12T10:50:43.700Z,15.61
2022-10-12T10:53:21.241Z,15.62
2022-10-12T10:56:04.036Z,15.62
2022-10-12T10:58:46.561Z,15.64
2022-10-12T11:01:38.164Z,15.65
2022-10-12T11:04:16.598Z,15.68
2022-10-12T11:06:54.903Z,15.72
2022-10-12T11:09:38.277Z,15.80
2022-10-12T11:12:13.628Z,15.89
2022-10-12T11:14:48.155Z,15.91
2022-10-12T11:17:28.516Z,15.93
2022-10-12T11:20:25.890Z,15.91
2022-10-12T11:23:09.683Z,15.82
2022-10-12T11:25:50.231Z,15.73
2022-10-12T11:28:20.542Z,15.69
2022-10-12T11:30:52.025Z,15.74
2022-10-12T11:33:28.089Z,15.82
2022-10-12T11:35:58.859Z,15.94
2022-10-12T11:38:45.831Z,16.03
2022-10-12T11:41:34.549Z,16.11
2022-10-12T11:44:04.748Z,16.18
2022-10-12T11:46:38.661Z,16.22
2022-10-12T11:49:16.343Z,16.25
2022-10-12T11:51:48.323Z,16.32
2022-10-12T11:54:44.482Z,16.36
2022-10-12T11:57:18.651Z,16.39
2022-10-12T11:59:59.298Z,16.41
2022-10-12T12:02:27.110Z,16.41
2022-10-12T12:04:56.197Z,16.42
2022-10-12T12:07:43.262Z,16.39
2022-10-12T12:10:26.639Z,16.32
2022-10-12T12:13:11.484Z,16.23
2022-10-12T12:15:52.547Z,16.21
2022-10-12T12:18:33.480Z,16.19
2022-10-12T12:21:09.278Z,16.12
2022-10-12T12:23:54.092Z,16.04
2022-10-12T12:26:31.134Z,16.00
2022-10-12T12:29:12.131Z,15.98
2022-10-12T12:31:40.052Z,15.96
2022-10-12T12:34:14.921Z,15.94
2022-10-12T12:36:46.659Z,15.94
2022-10-12T12:39:30.659Z,15.90
2022-10-12T12:42:02.332Z,15.87
2022-10-12T12:44:33.829Z,15.84
2022-10-12T12:47:01.758Z,15.82
2022-10-12T12:49:41.223Z,15.80
2022-10-12T12:52:18.315Z,15.78
2022-10-12T12:55:14.060Z,15.79
2022-10-12T12:58:00.593Z,15.79
2022-10-12T13:03:44.876Z,15.80
2022-10-12T13:06:15.731Z,15.84
2022-10-12T13:09:03.880Z,15.88
2022-10-12T13:11:44.004Z,15.92
2022-10-12T13:14:39.530Z,15.95
2022-10-12T13:17:33.512Z,15.97
2022-10-12T13:20:15.824Z,16.00
2022-10-12T13:22:45.804Z,16.00
2022-10-12T13:25:45.451Z,16.00
2022-10-12T13:28:20.966Z,16.01
2022-10-12T13:31:07.753Z,16.01
2022-10-12T13:33:51.794Z,15.99
2022-10-12T13:36:35.281Z,15.94
2022-10-12T13:39:23.484Z,15.90
2022-10-12T13:41:56.060Z,15.84
2022-10-12T13:44:28.436Z,15.79
2022-10-12T13:47:05.415Z,15.78
2022-10-12T13:49:43.169Z,15.77
2022-10-12T13:52:14.013Z,15.74
2022-10-12T13:54:46.242Z,15.71
2022-10-12T13:57:35.683Z,15.65
2022-10-12T14:00:22.528Z,15.58
2022-10-12T14:03:06.587Z,15.54
2022-10-12T14:05:44.918Z,15.53
2022-10-12T14:08:49.565Z,15.53
2022-10-12T14:12:08.687Z,15.51
2022-10-12T14:14:52.889Z,15.48
2022-10-12T14:21:48.734Z,15.41
2022-10-12T14:28:57.005Z,15.32
2022-10-12T14:31:53.897Z,15.28
2022-10-12T14:34:37.674Z,15.26
2022-10-12T14:37:09.796Z,15.24
2022-10-12T14:39:41.298Z,15.23
2022-10-12T14:42:29.740Z,15.24
2022-10-12T14:44:59.025Z,15.23
2022-10-12T14:48:06.863Z,15.20
2022-10-12T15:00:19.529Z,14.93
2022-10-12T15:03:04.376Z,14.85
2022-10-12T15:05:46.265Z,14.77
2022-10-12T15:08:20.964Z,14.70
2022-10-12T15:10:53.416Z,14.67
2022-10-12T15:13:22.082Z,14.64
2022-10-12T15:15:55.509Z,14.58
2022-10-12T15:18:24.448Z,14.54
2022-10-12T15:20:57.938Z,14.51
2022-10-12T15:23:26.249Z,14.50
2022-10-12T15:26:01.964Z,14.49
2022-10-12T15:28:36.998Z,14.50
2022-10-12T15:31:21.755Z,14.47
2022-10-12T15:34:23.964Z,14.44
2022-10-12T15:36:53.684Z,14.43
2022-10-12T15:39:21.948Z,14.42
2022-10-12T15:41:50.141Z,14.39
2022-10-12T15:44:18.399Z,14.37
2022-10-12T15:46:50.914Z,14.36
2022-10-12T15:49:21.847Z,14.35
2022-10-12T15:51:54.205Z,14.33
2022-10-12T15:54:22.815Z,14.29
2022-10-12T15:56:51.457Z,14.25
2022-10-12T15:59:19.525Z,14.21
2022-10-12T16:10:15.150Z,13.87
2022-10-12T16:12:46.634Z,13.75
2022-10-12T16:15:17.612Z,13.66
2022-10-12T16:18:04.550Z,13.65
2022-10-12T16:20:54.501Z,13.66
2022-10-12T16:24:31.118Z,13.64
2022-10-12T16:27:04.501Z,13.61
2022-10-12T16:29:34.028Z,13.60
2022-10-12T16:32:02.320Z,13.61
2022-10-12T16:34:31.338Z,13.64
2022-10-12T16:37:00.386Z,13.68
2022-10-12T16:39:29.356Z,13.71
2022-10-12T16:41:57.490Z,13.74
2022-10-12T16:44:40.257Z,13.77
2022-10-12T16:47:12.690Z,13.81
2022-10-12T16:49:40.702Z,13.84
2022-10-12T16:52:09.148Z,13.87
2022-10-12T16:54:37.672Z,13.83
2022-10-12T16:57:06.249Z,13.74
2022-10-12T16:59:36.493Z,13.64
2022-10-12T17:02:05.270Z,13.55
2022-10-12T17:04:36.020Z,13.51
2022-10-12T17:07:04.835Z,13.49
2022-10-12T17:09:33.475Z,13.45
2022-10-12T17:12:01.686Z,13.42
2022-10-12T17:14:30.293Z,13.40
2022-10-12T17:17:00.062Z,13.37
2022-10-12T17:19:32.385Z,13.35
2022-10-12T17:22:04.464Z,13.37
2022-10-12T17:24:35.115Z,13.37
2022-10-12T17:27:04.989Z,13.33
2022-10-12T17:29:38.179Z,13.29
2022-10-12T17:32:59.796Z,13.28
2022-10-12T17:35:39.698Z,13.28
2022-10-12T17:38:07.713Z,13.27
2022-10-12T17:40:39.063Z,13.19
2022-10-12T17:43:07.517Z,13.12
2022-10-12T17:45:35.379Z,13.05
2022-10-12T17:48:03.525Z,13.02
2022-10-12T17:50:32.897Z,12.98
2022-10-12T17:53:00.774Z,12.95
2022-10-12T17:55:47.674Z,12.94
2022-10-12T17:58:15.885Z,12.92
2022-10-12T18:00:43.953Z,12.91
2022-10-12T18:03:12.514Z,12.90
2022-10-12T18:05:40.567Z,12.89
2022-10-12T18:08:08.457Z,12.86
2022-10-12T18:10:40.906Z,12.84
2022-10-12T18:13:09.240Z,12.82
2022-10-12T18:15:42.519Z,12.80
2022-10-12T18:18:15.060Z,12.81
2022-10-12T18:20:43.510Z,12.83
2022-10-12T18:23:11.825Z,12.84
2022-10-12T18:25:41.918Z,12.86
2022-10-12T18:28:11.798Z,12.90
2022-10-12T18:30:47.582Z,12.94
2022-10-12T18:33:16.562Z,12.98
2022-10-12T18:35:44.963Z,13.00
2022-10-12T18:38:12.962Z,12.93
2022-10-12T18:40:42.341Z,12.89
2022-10-12T18:43:10.858Z,12.86
2022-10-12T18:45:43.749Z,12.83
2022-10-12T18:48:12.629Z,12.83
2022-10-12T18:50:40.506Z,12.85
2022-10-12T18:53:08.640Z,12.87
2022-10-12T18:55:38.314Z,12.89
2022-10-12T18:58:06.323Z,12.92
2022-10-12T19:00:34.341Z,12.94
2022-10-12T19:03:02.241Z,12.96
2022-10-12T19:05:30.820Z,12.98
2022-10-12T19:07:58.778Z,13.00
2022-10-12T19:10:26.689Z,13.03
2022-10-12T19:12:54.629Z,13.06
2022-10-12T19:15:22.533Z,13.08
2022-10-12T19:17:50.400Z,13.11
2022-10-12T19:20:18.484Z,13.12
2022-10-12T19:22:46.380Z,13.09
2022-10-12T19:25:14.470Z,13.03
2022-10-12T19:27:42.358Z,12.95
2022-10-12T19:30:10.667Z,12.89
2022-10-12T19:32:38.776Z,12.82
2022-10-12T19:35:07.078Z,12.76
2022-10-12T19:37:36.302Z,12.71
2022-10-12T19:40:07.762Z,12.65
2022-10-12T19:42:42.524Z,12.55
2022-10-12T19:45:11.030Z,12.45
2022-10-12T19:47:39.070Z,12.33
2022-10-12T19:50:10.037Z,12.22
2022-10-12T19:52:38.196Z,12.15
2022-10-12T19:55:06.677Z,12.11
2022-10-12T19:57:38.599Z,12.06
2022-10-12T20:00:08.774Z,12.02
2022-10-12T20:02:41.792Z,11.97
2022-10-12T20:05:11.699Z,11.97
2022-10-12T20:07:40.090Z,11.96
2022-10-12T20:10:08.620Z,11.94
2022-10-12T20:12:36.705Z,11.93
2022-10-12T20:15:05.241Z,11.89
2022-10-12T20:17:41.362Z,11.86
2022-10-12T20:20:13.125Z,11.86
2022-10-12T20:30:38.693Z,12.00
2022-10-12T20:33:41.496Z,12.06
2022-10-12T20:36:28.702Z,12.10
2022-10-12T20:39:08.525Z,12.13
2022-10-12T20:42:11.499Z,12.09
2022-10-12T21:09:37.126Z,12.13
2022-10-12T21:19:42.961Z,12.06
2022-10-12T21:35:27.621Z,11.79
2022-10-12T21:37:55.581Z,11.72
2022-10-12T21:40:23.580Z,11.73
2022-10-12T21:42:55.045Z,11.66
2022-10-12T21:45:54.188Z,11.64
2022-10-12T21:59:50.883Z,11.45
2022-10-12T22:02:19.085Z,11.43
2022-10-12T22:04:47.505Z,11.39
2022-10-12T22:07:15.405Z,11.34
2022-10-12T22:09:44.993Z,11.28
2022-10-12T22:59:08.328Z,11.46
2022-10-12T23:01:37.165Z,11.50
2022-10-12T23:04:13.644Z,11.48
2022-10-12T23:07:42.378Z,11.38
2022-10-12T23:10:26.697Z,11.30
2022-10-12T23:12:54.797Z,11.27
2022-10-12T23:15:24.045Z,11.26
2022-10-12T23:22:52.388Z,11.33
